sensor_id;sensor_type;location;lat;lon;timestamp;temperature;humidity
31799;DHT22;18374;51.136;3.502;2022-11-22T00:00:46;6.40;99.90
31799;DHT22;18374;51.136;3.502;2022-11-22T00:03:13;6.50;99.90
31799;DHT22;18374;51.136;3.502;2022-11-22T00:05:41;6.40;99.90
31799;DHT22;18374;51.136;3.502;2022-11-22T00:08:10;6.50;99.90
31799;DHT22;18374;51.136;3.502;2022-11-22T00:10:38;6.50;99.90
31799;DHT22;18374;51.136;3.502;2022-11-22T00:13:05;6.40;99.90
31799;DHT22;18374;51.136;3.502;2022-11-22T00:15:33;6.50;99.90
31799;DHT22;18374;51.136;3.502;2022-11-22T00:18:01;6.40;99.90
31799;DHT22;18374;51.136;3.502;2022-11-22T00:20:28;6.40;99.90
31799;DHT22;18374;51.136;3.502;2022-11-22T00:22:56;6.40;99.90
31799;DHT22;18374;51.136;3.502;2022-11-22T00:25:25;6.40;99.90
31799;DHT22;18374;51.136;3.502;2022-11-22T00:27:54;6.40;99.90
31799;DHT22;18374;51.136;3.502;2022-11-22T00:30:21;6.40;99.90
31799;DHT22;18374;51.136;3.502;2022-11-22T00:32:49;6.30;99.90
31799;DHT22;18374;51.136;3.502;2022-11-22T00:35:16;6.30;99.90
31799;DHT22;18374;51.136;3.502;2022-11-22T00:37:46;6.30;99.90
31799;DHT22;18374;51.136;3.502;2022-11-22T00:40:13;6.30;99.90
31799;DHT22;18374;51.136;3.502;2022-11-22T00:42:41;6.30;99.90
31799;DHT22;18374;51.136;3.502;2022-11-22T00:45:09;6.20;99.90
31799;DHT22;18374;51.136;3.502;2022-11-22T00:47:37;6.20;99.90
31799;DHT22;18374;51.136;3.502;2022-11-22T00:50:05;6.20;99.90
31799;DHT22;18374;51.136;3.502;2022-11-22T00:52:32;6.20;99.90
31799;DHT22;18374;51.136;3.502;2022-11-22T00:55:00;6.20;99.90
31799;DHT22;18374;51.136;3.502;2022-11-22T00:57:27;6.30;99.90
31799;DHT22;18374;51.136;3.502;2022-11-22T00:59:55;6.30;99.90
31799;DHT22;18374;51.136;3.502;2022-11-22T01:02:23;6.20;99.90
31799;DHT22;18374;51.136;3.502;2022-11-22T01:04:50;6.20;99.90
31799;DHT22;18374;51.136;3.502;2022-11-22T01:07:18;6.20;99.90
31799;DHT22;18374;51.136;3.502;2022-11-22T01:09:45;6.20;99.90
31799;DHT22;18374;51.136;3.502;2022-11-22T01:12:13;6.20;99.90
31799;DHT22;18374;51.136;3.502;2022-11-22T01:14:41;6.10;99.90
31799;DHT22;18374;51.136;3.502;2022-11-22T01:17:08;6.10;99.90
31799;DHT22;18374;51.136;3.502;2022-11-22T01:19:36;6.10;99.90
31799;DHT22;18374;51.136;3.502;2022-11-22T01:22:04;6.10;99.90
31799;DHT22;18374;51.136;3.502;2022-11-22T01:24:31;6.20;99.90
31799;DHT22;18374;51.136;3.502;2022-11-22T01:26:59;6.10;99.90
31799;DHT22;18374;51.136;3.502;2022-11-22T01:29:26;6.10;99.90
31799;DHT22;18374;51.136;3.502;2022-11-22T01:31:55;6.10;99.90
31799;DHT22;18374;51.136;3.502;2022-11-22T01:34:22;6.00;99.90
31799;DHT22;18374;51.136;3.502;2022-11-22T01:36:50;6.00;99.90
31799;DHT22;18374;51.136;3.502;2022-11-22T01:39:18;6.00;99.90
31799;DHT22;18374;51.136;3.502;2022-11-22T01:41:45;5.90;99.90
31799;DHT22;18374;51.136;3.502;2022-11-22T01:46:59;5.90;99.90
31799;DHT22;18374;51.136;3.502;2022-11-22T01:49:47;5.80;99.90
31799;DHT22;18374;51.136;3.502;2022-11-22T01:52:24;5.80;99.90
31799;DHT22;18374;51.136;3.502;2022-11-22T01:54:59;5.80;99.90
31799;DHT22;18374;51.136;3.502;2022-11-22T01:57:32;5.80;99.90
31799;DHT22;18374;51.136;3.502;2022-11-22T02:00:05;5.80;99.90
31799;DHT22;18374;51.136;3.502;2022-11-22T02:02:45;5.70;99.90
31799;DHT22;18374;51.136;3.502;2022-11-22T02:05:23;5.70;99.90
31799;DHT22;18374;51.136;3.502;2022-11-22T02:07:57;5.70;99.90
31799;DHT22;18374;51.136;3.502;2022-11-22T02:10:29;5.70;99.90
31799;DHT22;18374;51.136;3.502;2022-11-22T02:13:02;5.70;99.90
31799;DHT22;18374;51.136;3.502;2022-11-22T02:15:30;5.60;99.90
31799;DHT22;18374;51.136;3.502;2022-11-22T02:17:58;5.60;99.90
31799;DHT22;18374;51.136;3.502;2022-11-22T02:20:25;5.60;99.90
31799;DHT22;18374;51.136;3.502;2022-11-22T02:23:27;5.50;99.90
31799;DHT22;18374;51.136;3.502;2022-11-22T02:25:58;5.50;99.90
31799;DHT22;18374;51.136;3.502;2022-11-22T02:28:34;5.50;99.90
31799;DHT22;18374;51.136;3.502;2022-11-22T02:31:04;5.50;99.90
31799;DHT22;18374;51.136;3.502;2022-11-22T02:33:31;5.50;99.90
31799;DHT22;18374;51.136;3.502;2022-11-22T02:35:59;5.50;99.90
31799;DHT22;18374;51.136;3.502;2022-11-22T02:38:33;5.50;99.90
31799;DHT22;18374;51.136;3.502;2022-11-22T02:41:08;5.40;99.90
31799;DHT22;18374;51.136;3.502;2022-11-22T02:43:43;5.40;99.90
31799;DHT22;18374;51.136;3.502;2022-11-22T02:46:14;5.40;99.90
31799;DHT22;18374;51.136;3.502;2022-11-22T02:48:46;5.40;99.90
31799;DHT22;18374;51.136;3.502;2022-11-22T02:51:16;5.40;99.90
31799;DHT22;18374;51.136;3.502;2022-11-22T02:53:47;5.40;99.90
31799;DHT22;18374;51.136;3.502;2022-11-22T02:56:16;5.40;99.90
31799;DHT22;18374;51.136;3.502;2022-11-22T02:58:44;5.40;99.90
31799;DHT22;18374;51.136;3.502;2022-11-22T03:01:12;5.40;99.90
31799;DHT22;18374;51.136;3.502;2022-11-22T03:03:40;5.40;99.90
31799;DHT22;18374;51.136;3.502;2022-11-22T03:06:07;5.30;99.90
31799;DHT22;18374;51.136;3.502;2022-11-22T03:08:35;5.30;99.90
31799;DHT22;18374;51.136;3.502;2022-11-22T03:11:03;5.30;99.90
31799;DHT22;18374;51.136;3.502;2022-11-22T03:13:30;5.30;99.90
31799;DHT22;18374;51.136;3.502;2022-11-22T03:15:58;5.30;99.90
31799;DHT22;18374;51.136;3.502;2022-11-22T03:18:26;5.20;99.90
31799;DHT22;18374;51.136;3.502;2022-11-22T03:20:53;5.20;99.90
31799;DHT22;18374;51.136;3.502;2022-11-22T03:23:21;5.20;99.90
31799;DHT22;18374;51.136;3.502;2022-11-22T03:25:49;5.20;99.90
31799;DHT22;18374;51.136;3.502;2022-11-22T03:28:17;5.20;99.90
31799;DHT22;18374;51.136;3.502;2022-11-22T03:30:45;5.20;99.90
31799;DHT22;18374;51.136;3.502;2022-11-22T03:33:12;5.20;99.90
31799;DHT22;18374;51.136;3.502;2022-11-22T03:35:40;5.30;99.90
31799;DHT22;18374;51.136;3.502;2022-11-22T03:38:08;5.20;99.90
31799;DHT22;18374;51.136;3.502;2022-11-22T03:40:36;5.20;99.90
31799;DHT22;18374;51.136;3.502;2022-11-22T03:43:03;5.20;99.90
31799;DHT22;18374;51.136;3.502;2022-11-22T03:45:31;5.20;99.90
31799;DHT22;18374;51.136;3.502;2022-11-22T03:47:58;5.20;99.90
31799;DHT22;18374;51.136;3.502;2022-11-22T03:50:26;5.20;99.90
31799;DHT22;18374;51.136;3.502;2022-11-22T03:52:54;5.20;99.90
31799;DHT22;18374;51.136;3.502;2022-11-22T03:55:21;5.20;99.90
31799;DHT22;18374;51.136;3.502;2022-11-22T03:57:49;5.20;99.90
31799;DHT22;18374;51.136;3.502;2022-11-22T04:00:17;5.20;99.90
31799;DHT22;18374;51.136;3.502;2022-11-22T04:02:44;5.20;99.90
31799;DHT22;18374;51.136;3.502;2022-11-22T04:05:12;5.30;99.90
31799;DHT22;18374;51.136;3.502;2022-11-22T04:07:40;5.20;99.90
31799;DHT22;18374;51.136;3.502;2022-11-22T04:10:08;5.30;99.90
31799;DHT22;18374;51.136;3.502;2022-11-22T04:12:36;5.20;99.90
31799;DHT22;18374;51.136;3.502;2022-11-22T04:15:04;5.20;99.90
31799;DHT22;18374;51.136;3.502;2022-11-22T04:17:43;5.20;99.90
31799;DHT22;18374;51.136;3.502;2022-11-22T04:20:15;5.20;99.90
31799;DHT22;18374;51.136;3.502;2022-11-22T04:25:33;5.20;99.90
31799;DHT22;18374;51.136;3.502;2022-11-22T04:28:04;5.20;99.90
31799;DHT22;18374;51.136;3.502;2022-11-22T04:30:33;5.20;99.90
31799;DHT22;18374;51.136;3.502;2022-11-22T04:33:19;5.20;99.90
31799;DHT22;18374;51.136;3.502;2022-11-22T04:35:48;5.20;99.90
31799;DHT22;18374;51.136;3.502;2022-11-22T04:38:16;5.20;99.90
31799;DHT22;18374;51.136;3.502;2022-11-22T04:40:45;5.20;99.90
31799;DHT22;18374;51.136;3.502;2022-11-22T04:43:21;5.20;99.90
31799;DHT22;18374;51.136;3.502;2022-11-22T04:46:10;5.20;99.90
31799;DHT22;18374;51.136;3.502;2022-11-22T04:48:39;5.20;99.90
31799;DHT22;18374;51.136;3.502;2022-11-22T04:51:06;5.20;99.90
31799;DHT22;18374;51.136;3.502;2022-11-22T04:53:54;5.20;99.90
31799;DHT22;18374;51.136;3.502;2022-11-22T04:56:22;5.20;99.90
31799;DHT22;18374;51.136;3.502;2022-11-22T04:58:50;5.20;99.90
31799;DHT22;18374;51.136;3.502;2022-11-22T05:01:18;5.20;99.90
31799;DHT22;18374;51.136;3.502;2022-11-22T05:03:45;5.20;99.90
31799;DHT22;18374;51.136;3.502;2022-11-22T05:06:13;5.20;99.90
31799;DHT22;18374;51.136;3.502;2022-11-22T05:08:41;5.20;99.90
31799;DHT22;18374;51.136;3.502;2022-11-22T05:11:09;5.20;99.90
31799;DHT22;18374;51.136;3.502;2022-11-22T05:13:39;5.20;99.90
31799;DHT22;18374;51.136;3.502;2022-11-22T05:16:10;5.20;99.90
31799;DHT22;18374;51.136;3.502;2022-11-22T05:18:39;5.20;99.90
31799;DHT22;18374;51.136;3.502;2022-11-22T05:21:10;5.20;99.90
31799;DHT22;18374;51.136;3.502;2022-11-22T05:23:39;5.20;99.90
31799;DHT22;18374;51.136;3.502;2022-11-22T05:26:28;5.30;99.90
31799;DHT22;18374;51.136;3.502;2022-11-22T05:28:57;5.30;99.90
31799;DHT22;18374;51.136;3.502;2022-11-22T05:31:25;5.30;99.90
31799;DHT22;18374;51.136;3.502;2022-11-22T05:33:55;5.30;99.90
31799;DHT22;18374;51.136;3.502;2022-11-22T05:36:23;5.30;99.90
31799;DHT22;18374;51.136;3.502;2022-11-22T05:38:52;5.30;99.90
31799;DHT22;18374;51.136;3.502;2022-11-22T05:41:20;5.30;99.90
31799;DHT22;18374;51.136;3.502;2022-11-22T05:43:48;5.30;99.90
31799;DHT22;18374;51.136;3.502;2022-11-22T05:46:20;5.30;99.90
31799;DHT22;18374;51.136;3.502;2022-11-22T05:48:53;5.30;99.90
31799;DHT22;18374;51.136;3.502;2022-11-22T05:51:23;5.30;99.90
31799;DHT22;18374;51.136;3.502;2022-11-22T05:53:58;5.30;99.90
31799;DHT22;18374;51.136;3.502;2022-11-22T05:56:26;5.30;99.90
31799;DHT22;18374;51.136;3.502;2022-11-22T05:58:53;5.30;99.90
31799;DHT22;18374;51.136;3.502;2022-11-22T06:01:22;5.40;99.90
31799;DHT22;18374;51.136;3.502;2022-11-22T06:03:51;5.30;99.90
31799;DHT22;18374;51.136;3.502;2022-11-22T06:06:19;5.30;99.90
31799;DHT22;18374;51.136;3.502;2022-11-22T06:08:47;5.30;99.90
31799;DHT22;18374;51.136;3.502;2022-11-22T06:11:21;5.30;99.90
31799;DHT22;18374;51.136;3.502;2022-11-22T06:14:00;5.30;99.90
31799;DHT22;18374;51.136;3.502;2022-11-22T06:16:31;5.30;99.90
31799;DHT22;18374;51.136;3.502;2022-11-22T06:18:58;5.30;99.90
31799;DHT22;18374;51.136;3.502;2022-11-22T06:21:26;5.30;99.90
31799;DHT22;18374;51.136;3.502;2022-11-22T06:23:55;5.30;99.90
31799;DHT22;18374;51.136;3.502;2022-11-22T06:26:23;5.30;99.90
31799;DHT22;18374;51.136;3.502;2022-11-22T06:28:53;5.30;99.90
31799;DHT22;18374;51.136;3.502;2022-11-22T06:31:24;5.30;99.90
31799;DHT22;18374;51.136;3.502;2022-11-22T06:33:54;5.30;99.90
31799;DHT22;18374;51.136;3.502;2022-11-22T06:36:28;5.30;99.90
31799;DHT22;18374;51.136;3.502;2022-11-22T06:38:57;5.30;99.90
31799;DHT22;18374;51.136;3.502;2022-11-22T06:41:27;5.30;99.90
31799;DHT22;18374;51.136;3.502;2022-11-22T06:43:57;5.30;99.90
31799;DHT22;18374;51.136;3.502;2022-11-22T06:46:26;5.30;99.90
31799;DHT22;18374;51.136;3.502;2022-11-22T06:48:53;5.30;99.90
31799;DHT22;18374;51.136;3.502;2022-11-22T06:51:26;5.30;99.90
31799;DHT22;18374;51.136;3.502;2022-11-22T06:53:55;5.30;99.90
31799;DHT22;18374;51.136;3.502;2022-11-22T06:56:28;5.30;99.90
31799;DHT22;18374;51.136;3.502;2022-11-22T06:59:01;5.30;99.90
31799;DHT22;18374;51.136;3.502;2022-11-22T07:01:31;5.30;99.90
31799;DHT22;18374;51.136;3.502;2022-11-22T07:04:00;5.40;99.90
31799;DHT22;18374;51.136;3.502;2022-11-22T07:06:34;5.40;99.90
31799;DHT22;18374;51.136;3.502;2022-11-22T07:09:08;5.30;99.90
31799;DHT22;18374;51.136;3.502;2022-11-22T07:11:38;5.40;99.90
31799;DHT22;18374;51.136;3.502;2022-11-22T07:14:07;5.40;99.90
31799;DHT22;18374;51.136;3.502;2022-11-22T07:16:36;5.40;99.90
31799;DHT22;18374;51.136;3.502;2022-11-22T07:19:05;5.40;99.90
31799;DHT22;18374;51.136;3.502;2022-11-22T07:21:33;5.40;99.90
31799;DHT22;18374;51.136;3.502;2022-11-22T07:24:04;5.40;99.90
31799;DHT22;18374;51.136;3.502;2022-11-22T07:26:33;5.40;99.90
31799;DHT22;18374;51.136;3.502;2022-11-22T07:29:01;5.50;99.90
31799;DHT22;18374;51.136;3.502;2022-11-22T07:31:29;5.50;99.90
31799;DHT22;18374;51.136;3.502;2022-11-22T07:33:57;5.50;99.90
31799;DHT22;18374;51.136;3.502;2022-11-22T07:36:25;5.50;99.90
31799;DHT22;18374;51.136;3.502;2022-11-22T07:38:55;5.60;99.90
31799;DHT22;18374;51.136;3.502;2022-11-22T07:41:23;5.60;99.90
31799;DHT22;18374;51.136;3.502;2022-11-22T07:43:51;5.60;99.90
31799;DHT22;18374;51.136;3.502;2022-11-22T07:46:24;5.60;99.90
31799;DHT22;18374;51.136;3.502;2022-11-22T07:48:56;5.70;99.90
31799;DHT22;18374;51.136;3.502;2022-11-22T07:51:24;5.70;99.90
31799;DHT22;18374;51.136;3.502;2022-11-22T07:53:53;5.70;99.90
31799;DHT22;18374;51.136;3.502;2022-11-22T07:56:22;5.70;99.90
31799;DHT22;18374;51.136;3.502;2022-11-22T07:58:50;5.70;99.90
31799;DHT22;18374;51.136;3.502;2022-11-22T08:01:18;5.80;99.90
31799;DHT22;18374;51.136;3.502;2022-11-22T08:03:47;5.80;99.90
31799;DHT22;18374;51.136;3.502;2022-11-22T08:06:15;5.90;99.90
31799;DHT22;18374;51.136;3.502;2022-11-22T08:08:43;5.90;99.90
31799;DHT22;18374;51.136;3.502;2022-11-22T08:11:11;5.90;99.90
31799;DHT22;18374;51.136;3.502;2022-11-22T08:13:39;6.00;99.90
31799;DHT22;18374;51.136;3.502;2022-11-22T08:16:10;6.00;99.90
31799;DHT22;18374;51.136;3.502;2022-11-22T08:18:40;6.00;99.90
31799;DHT22;18374;51.136;3.502;2022-11-22T08:21:12;6.00;99.90
31799;DHT22;18374;51.136;3.502;2022-11-22T08:23:41;6.00;99.90
31799;DHT22;18374;51.136;3.502;2022-11-22T08:26:11;6.10;99.90
31799;DHT22;18374;51.136;3.502;2022-11-22T08:28:41;6.00;99.90
31799;DHT22;18374;51.136;3.502;2022-11-22T08:31:15;6.00;99.90
31799;DHT22;18374;51.136;3.502;2022-11-22T08:33:46;5.90;99.90
31799;DHT22;18374;51.136;3.502;2022-11-22T08:36:14;6.00;99.90
31799;DHT22;18374;51.136;3.502;2022-11-22T08:38:42;6.00;99.90
31799;DHT22;18374;51.136;3.502;2022-11-22T08:41:10;6.00;99.90
31799;DHT22;18374;51.136;3.502;2022-11-22T08:43:38;6.00;99.90
31799;DHT22;18374;51.136;3.502;2022-11-22T08:46:06;6.00;99.90
31799;DHT22;18374;51.136;3.502;2022-11-22T08:48:35;6.10;99.90
31799;DHT22;18374;51.136;3.502;2022-11-22T08:51:06;6.10;99.90
31799;DHT22;18374;51.136;3.502;2022-11-22T08:53:37;6.10;99.90
31799;DHT22;18374;51.136;3.502;2022-11-22T08:56:12;6.20;99.90
31799;DHT22;18374;51.136;3.502;2022-11-22T08:58:41;6.20;99.90
31799;DHT22;18374;51.136;3.502;2022-11-22T09:01:15;6.20;99.90
31799;DHT22;18374;51.136;3.502;2022-11-22T09:03:44;6.30;99.90
31799;DHT22;18374;51.136;3.502;2022-11-22T09:06:14;6.30;99.90
31799;DHT22;18374;51.136;3.502;2022-11-22T09:09:04;6.30;99.90
31799;DHT22;18374;51.136;3.502;2022-11-22T09:11:52;6.40;99.90
31799;DHT22;18374;51.136;3.502;2022-11-22T09:14:19;6.50;99.90
31799;DHT22;18374;51.136;3.502;2022-11-22T09:16:47;6.50;99.90
31799;DHT22;18374;51.136;3.502;2022-11-22T09:19:15;6.50;99.90
31799;DHT22;18374;51.136;3.502;2022-11-22T09:21:42;6.50;99.90
31799;DHT22;18374;51.136;3.502;2022-11-22T09:24:10;6.50;99.90
31799;DHT22;18374;51.136;3.502;2022-11-22T09:26:38;6.50;99.90
31799;DHT22;18374;51.136;3.502;2022-11-22T09:29:06;6.60;99.90
31799;DHT22;18374;51.136;3.502;2022-11-22T09:31:33;6.60;99.90
31799;DHT22;18374;51.136;3.502;2022-11-22T09:34:01;6.70;99.90
31799;DHT22;18374;51.136;3.502;2022-11-22T09:36:29;6.70;99.90
31799;DHT22;18374;51.136;3.502;2022-11-22T09:38:57;6.80;99.90
31799;DHT22;18374;51.136;3.502;2022-11-22T09:47:59;7.00;99.90
31799;DHT22;18374;51.136;3.502;2022-11-22T09:53:46;7.00;99.90
31799;DHT22;18374;51.136;3.502;2022-11-22T09:56:21;7.00;99.90
31799;DHT22;18374;51.136;3.502;2022-11-22T09:59:09;7.00;99.90
31799;DHT22;18374;51.136;3.502;2022-11-22T10:01:52;6.90;99.90
31799;DHT22;18374;51.136;3.502;2022-11-22T10:06:58;6.90;99.90
31799;DHT22;18374;51.136;3.502;2022-11-22T10:09:49;7.00;99.90
31799;DHT22;18374;51.136;3.502;2022-11-22T10:15:49;7.00;99.90
31799;DHT22;18374;51.136;3.502;2022-11-22T10:21:36;7.00;99.90
31799;DHT22;18374;51.136;3.502;2022-11-22T10:24:04;7.00;99.90
31799;DHT22;18374;51.136;3.502;2022-11-22T10:26:33;7.10;99.90
31799;DHT22;18374;51.136;3.502;2022-11-22T10:29:07;7.10;99.90
31799;DHT22;18374;51.136;3.502;2022-11-22T10:35:10;7.10;99.90
31799;DHT22;18374;51.136;3.502;2022-11-22T10:53:11;7.20;99.90
31799;DHT22;18374;51.136;3.502;2022-11-22T10:55:59;7.20;99.90
31799;DHT22;18374;51.136;3.502;2022-11-22T11:02:06;7.30;99.90
31799;DHT22;18374;51.136;3.502;2022-11-22T11:04:40;7.30;99.90
31799;DHT22;18374;51.136;3.502;2022-11-22T11:07:15;7.40;99.90
31799;DHT22;18374;51.136;3.502;2022-11-22T11:09:56;7.40;99.90
31799;DHT22;18374;51.136;3.502;2022-11-22T11:15:37;7.40;99.90
31799;DHT22;18374;51.136;3.502;2022-11-22T11:19:04;7.50;99.90
31799;DHT22;18374;51.136;3.502;2022-11-22T11:21:14;7.50;99.90
31799;DHT22;18374;51.136;3.502;2022-11-22T11:23:42;7.60;99.90
31799;DHT22;18374;51.136;3.502;2022-11-22T11:26:31;7.60;99.90
31799;DHT22;18374;51.136;3.502;2022-11-22T11:31:50;7.70;99.90
31799;DHT22;18374;51.136;3.502;2022-11-22T11:34:31;7.70;99.90
31799;DHT22;18374;51.136;3.502;2022-11-22T11:37:00;7.70;99.90
31799;DHT22;18374;51.136;3.502;2022-11-22T11:39:32;7.70;99.90
31799;DHT22;18374;51.136;3.502;2022-11-22T11:42:20;7.70;99.90
31799;DHT22;18374;51.136;3.502;2022-11-22T11:44:49;7.80;99.90
31799;DHT22;18374;51.136;3.502;2022-11-22T11:47:29;7.80;99.90
31799;DHT22;18374;51.136;3.502;2022-11-22T11:49:59;7.90;99.90
31799;DHT22;18374;51.136;3.502;2022-11-22T11:52:27;7.80;99.90
31799;DHT22;18374;51.136;3.502;2022-11-22T11:54:58;7.80;99.90
31799;DHT22;18374;51.136;3.502;2022-11-22T11:57:32;7.90;99.90
31799;DHT22;18374;51.136;3.502;2022-11-22T12:00:04;7.90;99.90
31799;DHT22;18374;51.136;3.502;2022-11-22T12:02:45;8.00;99.90
31799;DHT22;18374;51.136;3.502;2022-11-22T12:07:44;8.00;99.90
31799;DHT22;18374;51.136;3.502;2022-11-22T12:16:02;8.10;99.90
31799;DHT22;18374;51.136;3.502;2022-11-22T12:27:24;8.20;99.90
31799;DHT22;18374;51.136;3.502;2022-11-22T12:29:52;8.20;99.90
31799;DHT22;18374;51.136;3.502;2022-11-22T12:32:28;8.20;99.90
31799;DHT22;18374;51.136;3.502;2022-11-22T12:35:20;8.20;99.90
31799;DHT22;18374;51.136;3.502;2022-11-22T12:38:08;8.20;99.90
31799;DHT22;18374;51.136;3.502;2022-11-22T12:40:41;8.20;99.90
31799;DHT22;18374;51.136;3.502;2022-11-22T12:43:18;8.20;99.90
31799;DHT22;18374;51.136;3.502;2022-11-22T12:46:20;8.20;99.90
31799;DHT22;18374;51.136;3.502;2022-11-22T12:49:01;8.20;99.90
31799;DHT22;18374;51.136;3.502;2022-11-22T12:51:49;8.20;99.90
31799;DHT22;18374;51.136;3.502;2022-11-22T12:54:30;8.20;99.90
31799;DHT22;18374;51.136;3.502;2022-11-22T12:57:10;8.20;99.90
31799;DHT22;18374;51.136;3.502;2022-11-22T13:02:30;8.30;99.90
31799;DHT22;18374;51.136;3.502;2022-11-22T13:08:15;8.30;99.90
31799;DHT22;18374;51.136;3.502;2022-11-22T13:11:22;8.40;99.90
31799;DHT22;18374;51.136;3.502;2022-11-22T13:14:32;8.40;99.90
31799;DHT22;18374;51.136;3.502;2022-11-22T13:17:15;8.50;99.90
31799;DHT22;18374;51.136;3.502;2022-11-22T13:19:53;8.50;99.90
31799;DHT22;18374;51.136;3.502;2022-11-22T13:22:37;8.50;99.90
31799;DHT22;18374;51.136;3.502;2022-11-22T13:28:28;8.50;99.90
31799;DHT22;18374;51.136;3.502;2022-11-22T13:33:50;8.50;99.90
31799;DHT22;18374;51.136;3.502;2022-11-22T13:38:57;8.50;99.90
31799;DHT22;18374;51.136;3.502;2022-11-22T13:47:33;8.40;99.90
31799;DHT22;18374;51.136;3.502;2022-11-22T13:49:54;8.40;99.90
31799;DHT22;18374;51.136;3.502;2022-11-22T13:57:39;8.70;99.90
31799;DHT22;18374;51.136;3.502;2022-11-22T14:02:51;8.90;99.90
31799;DHT22;18374;51.136;3.502;2022-11-22T14:05:25;9.00;99.90
31799;DHT22;18374;51.136;3.502;2022-11-22T14:08:29;9.00;99.90
31799;DHT22;18374;51.136;3.502;2022-11-22T14:14:04;8.90;99.90
31799;DHT22;18374;51.136;3.502;2022-11-22T14:19:55;8.80;99.90
31799;DHT22;18374;51.136;3.502;2022-11-22T14:23:10;8.90;99.90
31799;DHT22;18374;51.136;3.502;2022-11-22T14:31:33;9.00;99.90
31799;DHT22;18374;51.136;3.502;2022-11-22T14:34:27;8.90;99.90
31799;DHT22;18374;51.136;3.502;2022-11-22T14:47:58;9.10;99.90
31799;DHT22;18374;51.136;3.502;2022-11-22T14:51:13;9.10;99.90
31799;DHT22;18374;51.136;3.502;2022-11-22T14:53:45;9.10;99.90
31799;DHT22;18374;51.136;3.502;2022-11-22T14:56:22;9.00;99.90
31799;DHT22;18374;51.136;3.502;2022-11-22T14:59:31;9.00;99.90
31799;DHT22;18374;51.136;3.502;2022-11-22T15:03:12;8.80;99.90
31799;DHT22;18374;51.136;3.502;2022-11-22T15:15:37;8.50;99.90
31799;DHT22;18374;51.136;3.502;2022-11-22T15:18:31;8.50;99.90
31799;DHT22;18374;51.136;3.502;2022-11-22T15:21:32;8.50;99.90
31799;DHT22;18374;51.136;3.502;2022-11-22T15:24:23;8.50;99.90
31799;DHT22;18374;51.136;3.502;2022-11-22T15:27:40;8.50;99.90
31799;DHT22;18374;51.136;3.502;2022-11-22T15:30:32;8.50;99.90
31799;DHT22;18374;51.136;3.502;2022-11-22T15:33:31;8.40;99.90
31799;DHT22;18374;51.136;3.502;2022-11-22T15:39:26;8.40;99.90
31799;DHT22;18374;51.136;3.502;2022-11-22T15:42:17;8.30;99.90
31799;DHT22;18374;51.136;3.502;2022-11-22T15:45:05;8.40;99.90
31799;DHT22;18374;51.136;3.502;2022-11-22T15:48:02;8.40;99.90
31799;DHT22;18374;51.136;3.502;2022-11-22T15:59:37;8.40;99.90
31799;DHT22;18374;51.136;3.502;2022-11-22T16:02:22;8.40;99.90
31799;DHT22;18374;51.136;3.502;2022-11-22T16:05:03;8.40;99.90
31799;DHT22;18374;51.136;3.502;2022-11-22T16:07:52;8.40;99.90
31799;DHT22;18374;51.136;3.502;2022-11-22T16:10:33;8.40;99.90
31799;DHT22;18374;51.136;3.502;2022-11-22T16:18:43;8.40;99.90
31799;DHT22;18374;51.136;3.502;2022-11-22T16:23:42;8.40;99.90
31799;DHT22;18374;51.136;3.502;2022-11-22T16:26:20;8.40;99.90
31799;DHT22;18374;51.136;3.502;2022-11-22T16:32:13;8.30;99.90
31799;DHT22;18374;51.136;3.502;2022-11-22T16:34:41;8.30;99.90
31799;DHT22;18374;51.136;3.502;2022-11-22T16:37:30;8.30;99.90
31799;DHT22;18374;51.136;3.502;2022-11-22T16:40:06;8.30;99.90
31799;DHT22;18374;51.136;3.502;2022-11-22T16:42:35;8.30;99.90
31799;DHT22;18374;51.136;3.502;2022-11-22T16:45:16;8.40;99.90
31799;DHT22;18374;51.136;3.502;2022-11-22T16:47:46;8.40;99.90
31799;DHT22;18374;51.136;3.502;2022-11-22T16:50:37;8.40;99.90
31799;DHT22;18374;51.136;3.502;2022-11-22T16:53:14;8.40;99.90
31799;DHT22;18374;51.136;3.502;2022-11-22T16:55:42;8.40;99.90
31799;DHT22;18374;51.136;3.502;2022-11-22T16:58:18;8.40;99.90
31799;DHT22;18374;51.136;3.502;2022-11-22T17:00:48;8.40;99.90
31799;DHT22;18374;51.136;3.502;2022-11-22T17:03:19;8.40;99.90
31799;DHT22;18374;51.136;3.502;2022-11-22T17:05:49;8.40;99.90
31799;DHT22;18374;51.136;3.502;2022-11-22T17:08:18;8.40;99.90
31799;DHT22;18374;51.136;3.502;2022-11-22T17:10:48;8.40;99.90
31799;DHT22;18374;51.136;3.502;2022-11-22T17:13:19;8.40;99.90
31799;DHT22;18374;51.136;3.502;2022-11-22T17:15:55;8.30;99.90
31799;DHT22;18374;51.136;3.502;2022-11-22T17:18:23;8.40;99.90
31799;DHT22;18374;51.136;3.502;2022-11-22T17:20:51;8.40;99.90
31799;DHT22;18374;51.136;3.502;2022-11-22T17:23:32;8.40;99.90
31799;DHT22;18374;51.136;3.502;2022-11-22T17:26:03;8.30;99.90
31799;DHT22;18374;51.136;3.502;2022-11-22T17:28:32;8.40;99.90
31799;DHT22;18374;51.136;3.502;2022-11-22T17:31:00;8.30;99.90
31799;DHT22;18374;51.136;3.502;2022-11-22T17:33:28;8.30;99.90
31799;DHT22;18374;51.136;3.502;2022-11-22T17:35:56;8.30;99.90
31799;DHT22;18374;51.136;3.502;2022-11-22T17:38:24;8.30;99.90
31799;DHT22;18374;51.136;3.502;2022-11-22T17:40:58;8.30;99.90
31799;DHT22;18374;51.136;3.502;2022-11-22T17:43:26;8.30;99.90
31799;DHT22;18374;51.136;3.502;2022-11-22T17:45:54;8.40;99.90
31799;DHT22;18374;51.136;3.502;2022-11-22T17:48:21;8.40;99.90
31799;DHT22;18374;51.136;3.502;2022-11-22T17:50:49;8.40;99.90
31799;DHT22;18374;51.136;3.502;2022-11-22T17:53:17;8.40;99.90
31799;DHT22;18374;51.136;3.502;2022-11-22T17:55:44;8.40;99.90
31799;DHT22;18374;51.136;3.502;2022-11-22T17:58:33;8.40;99.90
31799;DHT22;18374;51.136;3.502;2022-11-22T18:01:06;8.40;99.90
31799;DHT22;18374;51.136;3.502;2022-11-22T18:03:52;8.50;99.90
31799;DHT22;18374;51.136;3.502;2022-11-22T18:06:20;8.50;99.90
31799;DHT22;18374;51.136;3.502;2022-11-22T18:08:48;8.50;99.90
31799;DHT22;18374;51.136;3.502;2022-11-22T18:11:16;8.40;99.90
31799;DHT22;18374;51.136;3.502;2022-11-22T18:13:44;8.40;99.90
31799;DHT22;18374;51.136;3.502;2022-11-22T18:16:12;8.40;99.90
31799;DHT22;18374;51.136;3.502;2022-11-22T18:18:42;8.40;99.90
31799;DHT22;18374;51.136;3.502;2022-11-22T18:21:26;8.40;99.90
31799;DHT22;18374;51.136;3.502;2022-11-22T18:23:57;8.40;99.90
31799;DHT22;18374;51.136;3.502;2022-11-22T18:26:25;8.40;99.90
31799;DHT22;18374;51.136;3.502;2022-11-22T18:29:11;8.40;99.90
31799;DHT22;18374;51.136;3.502;2022-11-22T18:32:00;8.40;99.90
31799;DHT22;18374;51.136;3.502;2022-11-22T18:34:29;8.40;99.90
31799;DHT22;18374;51.136;3.502;2022-11-22T18:36:56;8.40;99.90
31799;DHT22;18374;51.136;3.502;2022-11-22T18:39:30;8.40;99.90
31799;DHT22;18374;51.136;3.502;2022-11-22T18:42:01;8.40;99.90
31799;DHT22;18374;51.136;3.502;2022-11-22T18:44:29;8.40;99.90
31799;DHT22;18374;51.136;3.502;2022-11-22T18:46:56;8.40;99.90
31799;DHT22;18374;51.136;3.502;2022-11-22T18:49:24;8.40;99.90
31799;DHT22;18374;51.136;3.502;2022-11-22T18:51:52;8.40;99.90
31799;DHT22;18374;51.136;3.502;2022-11-22T18:54:19;8.50;99.90
31799;DHT22;18374;51.136;3.502;2022-11-22T18:56:51;8.50;99.90